In Rescue
 
Open Full Screen Window  High Contrast Mode
May 13, 2021 11:17 AM EDT
Weather Information
Wind Direction
  ---
Wind Speed
  00 kt (0 mph)
Wind Gust
  00 kt (0 mph)
Altimeter
30.41 in
Visibility
10 SM
Temperature
16° C
61° F
Dewpoint
-04° C
25° F
Humidity
25%
1hr Rain Fall
00.00 in.
24hr Rain Fall
00.00 in.
Sky Condition
Clear
VFR

METAR KRMY 131517Z AUTO 00000KT 10SM CLR 16/M04 A3041 RMK AO2 T01591045

FAA Disclaimer: The data displayed is for advisory purposes only and is not to be used for flight planning or operations.